Latest Weather Observations for Cerberus

IDV60801

Issued at 11:02 pm EST Monday 25 May 2015 (issued every 30 minutes, with the page automatically refreshed every 10 minutes)

About weather observations | Map of weather stations | Latest weather observations for VIC | Other Formats
Station Details ID: 086361 Name: CERBERUS Lat: -38.36 Lon: 145.18 Height: 12.69 m
Data from the previous 72 hours. | See also: Recent months at Cerberus
Date/Time
EST
Temp
°C
App
Temp
°C
Dew
Point
Rel
Hum
%
Delta-T
°C
Wind Press
QNH
hPa
Press
MSL
hPa
Rain
since 9 am
mm
Dir
 
Spd
km/h
Gust
km/h
Spd
kts
Gust
kts
25/11:00pm 4.7 3.2 3.2 90 0.6 CALM 0 0 0 0 1029.9 1029.9 0.0
25/10:30pm 5.0 3.6 3.5 90 0.6 CALM 0 0 0 0 1029.9 1029.9 0.0
25/10:00pm 5.3 3.9 3.6 89 0.7 CALM 0 0 0 0 1030.1 1030.1 0.0
25/09:30pm 5.0 3.6 3.3 89 0.7 CALM 0 0 0 0 1030.2 1030.2 0.0
25/09:00pm 5.8 4.5 4.0 88 0.8 CALM 0 0 0 0 1030.1 1030.1 0.0
25/08:30pm 6.6 5.4 4.8 88 0.8 CALM 0 0 0 0 1030.3 1030.3 0.0
25/08:00pm 6.5 5.2 4.3 86 0.9 CALM 0 0 0 0 1030.0 1030.0 0.0
25/07:30pm 6.7 5.5 4.4 85 1.0 CALM 0 0 0 0 1030.0 1030.0 0.0
25/07:00pm 7.6 6.5 4.9 83 1.2 CALM 0 0 0 0 1029.8 1029.8 0.0
25/06:30pm 8.1 7.0 5.0 81 1.4 CALM 0 0 0 0 1029.6 1029.6 0.0
25/06:00pm 9.5 8.4 5.1 74 2.0 CALM 0 0 0 0 1029.3 1029.3 0.0
25/05:30pm 11.0 10.0 5.5 69 2.5 CALM 0 0 0 0 1029.0 1029.0 0.0
25/05:00pm 12.8 11.9 6.2 64 3.1 CALM 0 0 0 0 1028.8 1028.8 0.0
25/04:30pm 15.2 14.4 6.7 57 4.1 CALM 0 0 0 0 1028.8 1028.8 0.0
25/04:00pm 15.9 15.1 6.6 54 4.5 CALM 0 0 0 0 1028.8 1028.8 0.0
25/03:30pm 16.1 14.6 6.8 54 4.6 WSW 4 11 2 6 1028.8 1028.8 0.0
25/03:00pm 16.2 14.7 6.6 53 4.7 W 4 13 2 7 1028.9 1028.9 0.0
25/02:30pm 16.2 14.6 6.3 52 4.8 WNW 4 13 2 7 1029.0 1029.0 0.0
25/02:00pm 15.9 13.0 6.3 53 4.6 NW 11 17 6 9 1029.2 1029.2 0.0
25/01:30pm 16.1 13.7 6.8 54 4.5 NW 9 17 5 9 1029.3 1029.3 0.0
25/01:00pm 15.4 12.5 6.7 56 4.2 NW 11 19 6 10 1029.6 1029.6 0.0
25/12:30pm 15.4 12.4 7.9 61 3.7 NW 13 19 7 10 1030.0 1030.0 0.0
25/12:00pm 15.0 12.5 8.3 64 3.3 NW 11 17 6 9 1030.4 1030.4 0.0
25/11:30am 14.3 12.5 8.0 66 3.1 NNW 7 13 4 7 1030.9 1030.9 0.0
25/11:00am 13.6 11.9 8.4 71 2.6 NW 7 11 4 6 1031.3 1031.3 0.0
25/10:30am 12.5 11.4 8.4 76 2.0 N 4 6 2 3 1031.2 1031.2 0.0
25/10:00am 11.7 10.1 8.2 79 1.7 NNW 6 11 3 6 1031.2 1031.2 0.0
25/09:30am 11.1 9.6 8.5 84 1.3 N 6 7 3 4 1031.2 1031.2 0.0
25/09:00am 9.3 8.2 7.1 86 1.0 N 2 6 1 3 1031.5 1031.5 0.0
25/08:30am 8.7 6.8 6.7 87 0.9 N 6 7 3 4 1031.2 1031.2 0.0
25/08:00am 8.0 5.9 6.0 87 0.9 N 6 7 3 4 1031.3 1031.3 0.0
25/07:30am 6.9 5.0 4.9 87 0.9 N 4 6 2 3 1031.1 1031.1 0.0
25/07:00am 7.2 5.0 5.2 87 0.9 N 6 11 3 6 1031.1 1031.1 0.0
25/06:30am 7.1 4.9 5.3 88 0.8 N 6 9 3 5 1030.9 1030.9 0.0
25/06:00am 5.8 3.7 4.0 88 0.8 N 4 6 2 3 1030.3 1030.3 0.0
25/05:30am 6.7 5.1 4.7 87 0.9 N 2 4 1 2 1030.0 1030.0 0.0
25/05:00am 8.1 6.5 6.2 88 0.9 N 4 7 2 4 1030.2 1030.2 0.0
25/04:30am 6.8 5.0 5.3 90 0.7 N 4 6 2 3 1030.0 1030.0 0.0
25/04:00am 6.6 4.7 5.1 90 0.7 N 4 7 2 4 1029.8 1029.8 0.0
25/03:30am 6.5 5.4 5.0 90 0.7 CALM 0 2 0 1 1030.0 1030.0 0.0
25/03:00am 6.4 4.8 4.7 89 0.7 N 2 6 1 3 1030.3 1030.3 0.0
25/02:30am 7.2 5.1 5.8 91 0.6 N 6 7 3 4 1030.6 1030.6 0.0
25/02:00am 7.6 6.0 6.2 91 0.6 N 4 6 2 3 1030.3 1030.3 0.0
25/01:30am 5.9 4.3 4.5 91 0.6 N 2 4 1 2 1030.3 1030.3 0.0
25/01:00am 7.4 5.7 6.0 91 0.6 N 4 6 2 3 1030.6 1030.6 0.0
25/12:30am 6.1 4.9 4.7 91 0.6 CALM 0 2 0 1 1030.7 1030.7 0.0
25/12:00am 7.8 5.8 6.4 91 0.6 N 6 9 3 5 1030.7 1030.7 0.0
 
Date/Time
EST
Temp
°C
App
Temp
°C
Dew
Point
Rel
Hum
%
Delta-T
°C
Wind Press
QNH
hPa
Press
MSL
hPa
Rain
since 9 am
mm
Dir
 
Spd
km/h
Gust
km/h
Spd
kts
Gust
kts
24/11:30pm 5.7 3.7 4.3 91 0.6 N 4 6 2 3 1030.7 1030.7 0.0
24/11:00pm 4.8 3.0 3.3 90 0.6 N 2 4 1 2 1030.7 1030.7 0.0
24/10:30pm 4.5 2.6 3.0 90 0.6 N 2 4 1 2 1030.8 1030.8 0.0
24/10:00pm 5.5 4.2 4.0 90 0.6 CALM 0 4 0 2 1030.9 1030.9 0.0
24/09:30pm 5.5 3.8 3.8 89 0.7 N 2 4 1 2 1030.9 1030.9 0.0
24/09:00pm 5.9 4.2 4.2 89 0.7 N 2 4 1 2 1031.0 1031.0 0.0
24/08:30pm 7.3 5.2 5.6 89 0.8 N 6 6 3 3 1030.8 1030.8 0.0
24/08:00pm 6.1 4.1 4.3 88 0.8 N 4 6 2 3 1030.8 1030.8 0.0
24/07:30pm 6.3 4.3 4.3 87 0.9 N 4 6 2 3 1030.7 1030.7 0.0
24/07:00pm 6.0 4.2 3.7 85 1.0 N 2 4 1 2 1030.7 1030.7 0.0
24/06:30pm 6.8 5.5 4.1 83 1.2 CALM 0 0 0 0 1030.3 1030.3 0.0
24/06:00pm 7.9 6.3 4.5 79 1.5 N 2 4 1 2 1030.2 1030.2 0.0
24/05:30pm 9.8 8.0 5.4 74 2.0 N 4 6 2 3 1030.0 1030.0 0.0
24/05:00pm 10.4 8.3 5.8 73 2.1 N 6 6 3 3 1029.9 1029.9 0.0
24/04:30pm 11.5 10.6 6.2 70 2.5 CALM 0 0 0 0 1030.1 1030.1 0.0
24/04:00pm 12.3 11.1 6.4 67 2.8 N 2 4 1 2 1030.0 1030.0 0.0
24/03:30pm 13.3 11.7 6.2 62 3.4 W 4 7 2 4 1029.9 1029.9 0.0
24/03:00pm 13.2 11.2 6.1 62 3.3 WNW 6 9 3 5 1029.8 1029.8 0.0
24/02:30pm 12.5 11.1 7.2 70 2.6 N 4 7 2 4 1029.8 1029.8 0.0
24/02:00pm 13.1 11.5 7.8 70 2.6 N 6 9 3 5 1029.7 1029.7 0.0
24/01:30pm 11.4 9.5 6.7 73 2.2 N 6 11 3 6 1030.0 1030.0 0.0
24/01:00pm 11.0 8.9 6.7 75 2.0 NNE 7 11 4 6 1030.3 1030.3 0.0
24/12:30pm 10.1 7.5 5.9 75 1.9 NNE 9 17 5 9 1030.5 1030.5 0.0
24/12:00pm 9.9 7.2 5.7 75 1.9 N 9 13 5 7 1031.1 1031.1 0.0
24/11:30am 9.4 7.1 5.6 77 1.7 N 7 13 4 7 1031.6 1031.6 0.0
24/11:00am 9.0 6.8 5.4 78 1.6 N 6 9 3 5 1032.1 1032.1 0.0
24/10:30am 8.2 6.0 5.1 81 1.4 N 6 11 3 6 1032.2 1032.2 0.0
24/10:00am 7.4 5.1 4.7 83 1.2 NW 6 11 3 6 1032.3 1032.3 0.0
24/09:30am 7.1 4.8 4.6 84 1.1 N 6 7 3 4 1032.3 1032.3 0.0
24/09:00am 6.9 4.9 4.4 84 1.1 N 4 7 2 4 1032.4 1032.4 0.0
24/08:30am 6.9 4.9 4.4 84 1.1 N 4 7 2 4 1032.2 1032.2 0.0
24/08:00am 7.0 4.6 4.5 84 1.1 N 6 9 3 5 1031.9 1031.9 0.0
24/07:30am 7.1 4.6 4.6 84 1.1 N 7 13 4 7 1031.3 1031.3 0.0
24/07:00am 7.7 5.2 5.0 83 1.2 N 7 17 4 9 1030.9 1030.9 0.0
24/06:30am 8.1 5.9 5.2 82 1.3 N 6 9 3 5 1031.0 1031.0 0.0
24/06:00am 8.3 5.9 5.4 82 1.3 NE 7 13 4 7 1030.7 1030.7 0.0
24/05:30am 8.3 6.9 5.6 83 1.2 N 2 7 1 4 1030.7 1030.7 0.0
24/05:00am 8.5 7.1 5.6 82 1.3 N 2 4 1 2 1030.7 1030.7 0.0
24/04:30am 8.5 7.5 5.6 82 1.3 CALM 0 0 0 0 1030.8 1030.8 0.0
24/04:00am 8.7 7.4 5.8 82 1.3 N 2 4 1 2 1030.7 1030.7 0.0
24/03:30am 8.8 7.5 6.1 83 1.2 N 2 7 1 4 1030.5 1030.5 0.0
24/03:00am 8.8 7.9 6.1 83 1.2 CALM 0 4 0 2 1030.6 1030.6 0.0
24/02:30am 8.8 7.1 6.1 83 1.2 N 4 6 2 3 1030.8 1030.8 0.0
24/02:00am 8.2 7.2 5.5 83 1.2 CALM 0 0 0 0 1030.9 1030.9 0.0
24/01:30am 8.6 7.2 5.7 82 1.3 W 2 4 1 2 1031.1 1031.1 0.0
24/01:00am 8.7 7.5 6.3 85 1.1 WNW 2 6 1 3 1031.2 1031.2 0.0
24/12:30am 8.3 7.2 5.2 81 1.4 CALM 0 0 0 0 1031.4 1031.4 0.0
24/12:00am 9.3 8.3 5.7 78 1.6 CALM 0 0 0 0 1031.4 1031.4 0.0
 
Date/Time
EST
Temp
°C
App
Temp
°C
Dew
Point
Rel
Hum
%
Delta-T
°C
Wind Press
QNH
hPa
Press
MSL
hPa
Rain
since 9 am
mm
Dir
 
Spd
km/h
Gust
km/h
Spd
kts
Gust
kts
23/11:30pm 9.5 8.6 6.0 79 1.6 CALM 0 0 0 0 1031.5 1031.5 0.0
23/11:00pm 9.8 8.2 6.3 79 1.6 W 4 6 2 3 1031.7 1031.7 0.0
23/10:30pm 10.1 8.9 6.6 79 1.6 WSW 2 4 1 2 1031.9 1031.9 0.0
23/10:00pm 10.2 9.4 6.7 79 1.6 CALM 0 2 0 1 1032.0 1032.0 0.0
23/09:30pm 10.2 9.4 6.7 79 1.6 CALM 0 0 0 0 1032.1 1032.1 0.0
23/09:00pm 10.3 9.5 6.5 77 1.8 CALM 0 0 0 0 1032.2 1032.2 0.0
23/08:30pm 10.2 9.0 6.4 77 1.8 W 2 6 1 3 1032.1 1032.1 0.0
23/08:00pm 10.2 8.6 6.5 78 1.7 W 4 4 2 2 1032.0 1032.0 0.0
23/07:30pm 10.2 9.4 6.4 77 1.8 CALM 0 0 0 0 1031.9 1031.9 0.0
23/07:00pm 10.4 8.8 6.4 76 1.9 W 4 4 2 2 1031.9 1031.9 0.0
23/06:30pm 10.6 9.8 6.4 75 2.0 CALM 0 2 0 1 1031.8 1031.8 0.0
23/06:00pm 10.5 8.9 6.3 75 1.9 SE 4 11 2 6 1031.6 1031.6 0.0
23/05:30pm 10.6 9.3 6.2 74 2.0 ESE 2 6 1 3 1031.6 1031.6 0.0
23/05:00pm 10.7 9.1 6.3 74 2.0 ESE 4 7 2 4 1031.6 1031.6 0.0
23/04:30pm 11.0 9.0 6.4 73 2.2 SSE 6 11 3 6 1031.7 1031.7 0.0
23/04:00pm 11.2 9.1 6.5 73 2.2 SSE 7 13 4 7 1031.8 1031.8 0.0
23/03:30pm 11.4 8.9 6.5 72 2.3 S 9 15 5 8 1031.8 1031.8 0.0
23/03:00pm 11.6 9.5 6.5 71 2.4 SSW 7 13 4 7 1031.9 1031.9 0.0
23/02:30pm 11.8 9.7 6.7 71 2.4 SE 7 11 4 6 1031.6 1031.6 0.0
23/02:00pm 11.9 9.3 6.2 68 2.7 SSE 9 15 5 8 1031.8 1031.8 0.0
23/01:30pm 11.7 8.3 5.8 67 2.7 SSE 13 19 7 10 1032.0 1032.0 0.0
23/01:00pm 12.2 9.6 6.3 67 2.8 SSE 9 17 5 9 1032.1 1032.1 0.0
23/12:30pm 12.1 9.2 6.6 69 2.6 SW 11 19 6 10 1032.3 1032.3 0.0
23/12:00pm 12.4 10.5 6.5 67 2.8 WSW 6 11 3 6 1032.7 1032.7 0.0
23/11:30am 12.0 10.1 6.7 70 2.5 SSW 6 9 3 5 1033.1 1033.1 0.0
23/11:00am 11.7 9.5 6.4 70 2.5 SSW 7 13 4 7 1033.4 1033.4 0.0
23/10:30am 11.5 9.8 6.0 69 2.6 S 4 9 2 5 1033.5 1033.5 0.0
23/10:00am 11.3 8.7 6.2 71 2.4 WSW 9 15 5 8 1033.4 1033.4 0.0
23/09:30am 11.2 8.6 5.9 70 2.5 SSW 9 15 5 8 1033.3 1033.3 0.0
23/09:00am 11.1 9.1 6.3 72 2.2 SW 6 9 3 5 1033.3 1033.3 0.2
23/08:30am 10.6 8.4 6.0 73 2.1 WSW 7 11 4 6 1033.1 1033.1 0.2
23/08:00am 10.4 8.3 5.8 73 2.1 WSW 6 9 3 5 1033.0 1033.0 0.2
23/07:30am 10.2 8.1 5.6 73 2.1 WNW 6 9 3 5 1032.7 1032.7 0.2
23/07:00am 10.2 8.4 5.6 73 2.1 SW 4 6 2 3 1032.4 1032.4 0.2
23/06:30am 10.2 7.9 5.6 73 2.1 W 7 11 4 6 1032.3 1032.3 0.2
23/06:00am 10.3 8.6 5.7 73 2.1 SW 4 7 2 4 1032.1 1032.1 0.2
23/05:30am 10.7 8.4 5.9 72 2.2 SSW 7 11 4 6 1031.8 1031.8 0.2
23/05:00am 10.8 8.1 5.8 71 2.3 S 9 17 5 9 1031.6 1031.6 0.2
23/04:30am 10.8 8.7 5.6 70 2.4 S 6 11 3 6 1031.4 1031.4 0.2
23/04:00am 10.9 8.6 5.7 70 2.4 S 7 15 4 8 1031.4 1031.4 0.2
23/03:30am 11.0 8.3 5.7 70 2.4 S 9 15 5 8 1031.4 1031.4 0.2
23/03:00am 11.1 9.0 5.8 70 2.4 SSW 6 9 3 5 1031.5 1031.5 0.2
23/02:30am 11.0 8.9 5.7 70 2.4 SSW 6 9 3 5 1031.7 1031.7 0.2
23/02:00am 11.1 8.0 5.6 69 2.5 S 11 17 6 9 1031.8 1031.8 0.2
23/01:30am 10.6 8.4 5.4 70 2.4 SSE 6 13 3 7 1031.7 1031.7 0.2
23/01:00am 11.2 8.9 5.7 69 2.5 S 7 17 4 9 1031.8 1031.8 0.2
23/12:30am 11.2 8.8 5.3 67 2.7 S 7 13 4 7 1031.9 1031.9 0.2
23/12:00am 11.6 8.2 5.7 67 2.7 S 13 20 7 11 1032.1 1032.1 0.2
 
Date/Time
EST
Temp
°C
App
Temp
°C
Dew
Point
Rel
Hum
%
Delta-T
°C
Wind Press
QNH
hPa
Press
MSL
hPa
Rain
since 9 am
mm
Dir
 
Spd
km/h
Gust
km/h
Spd
kts
Gust
kts
22/11:30pm 11.7 8.6 5.6 66 2.8 S 11 19 6 10 1032.0 1032.0 0.2

Other Formats:

Comma delimited format used in spreadsheet applications
http://www.bom.gov.au/fwo/IDV60801/IDV60801.94898.axf

JavaScript Object Notation format (JSON) in row-major order
http://www.bom.gov.au/fwo/IDV60801/IDV60801.94898.json